Time;durP1;ratioP1;P1;durP2;ratioP2;P2;SDS_P1;SDS_P2;PMS_P1;PMS_P2;Temp;Humidity;BMP_temperature;BMP_pressure;BME280_temperature;BME280_humidity;BME280_pressure;Samples;Min_cycle;Max_cycle;Signal;HPM_P1;HPM_P2
2021/07/21 00:01:08;;;;;;;3.10;2.90;;;;;;;31.57;41.66;98710.45;1691696;83;22235;-50
2021/07/21 00:03:34;;;;;;;3.72;3.42;;;;;;;31.56;41.66;98708.79;1719927;83;21491;-50
2021/07/21 00:06:02;;;;;;;3.83;3.52;;;;;;;31.56;41.70;98710.15;1696566;83;21034;-50
2021/07/21 00:08:28;;;;;;;4.12;3.83;;;;;;;31.56;41.70;98704.71;1719876;83;21110;-51
2021/07/21 00:13:41;;;;;;;3.65;3.35;;;;;;;31.55;41.70;98700.30;1719135;83;21109;-51
2021/07/21 00:16:15;;;;;;;3.87;3.27;;;;;;;31.55;41.67;98703.85;1690571;83;21048;-51
2021/07/21 00:21:10;;;;;;;3.70;3.40;;;;;;;31.54;41.69;98702.70;1715482;83;21085;-51
2021/07/21 00:23:38;;;;;;;3.87;3.58;;;;;;;31.53;41.71;98707.31;1679222;83;21001;-50
2021/07/21 00:26:06;;;;;;;3.85;3.55;;;;;;;31.53;41.69;98710.03;1718771;83;21091;-50
2021/07/21 00:28:34;;;;;;;3.70;3.47;;;;;;;31.53;41.71;98709.20;1679469;85;21135;-51
2021/07/21 00:31:02;;;;;;;3.65;3.42;;;;;;;31.52;41.73;98717.86;1651463;86;21065;-51
2021/07/21 00:33:29;;;;;;;4.20;3.67;;;;;;;31.53;41.72;98721.44;1711560;83;21055;-50
2021/07/21 00:35:57;;;;;;;4.00;3.60;;;;;;;31.53;41.73;98718.72;1711472;83;21067;-50
2021/07/21 00:38:24;;;;;;;3.80;3.60;;;;;;;31.52;41.72;98721.11;1719101;83;22293;-50
2021/07/21 00:40:51;;;;;;;3.85;3.55;;;;;;;31.51;41.72;98716.20;1690259;83;21191;-50
2021/07/21 00:43:17;;;;;;;3.70;3.47;;;;;;;31.51;41.74;98712.66;1688842;83;21070;-51
2021/07/21 00:45:44;;;;;;;3.52;3.33;;;;;;;31.51;41.74;98713.48;1719915;83;21104;-51
2021/07/21 00:48:11;;;;;;;3.58;3.37;;;;;;;31.51;41.74;98708.58;1706296;82;21467;-51
2021/07/21 00:50:38;;;;;;;3.42;3.22;;;;;;;31.49;41.74;98708.22;1732473;82;21044;-50
2021/07/21 00:53:04;;;;;;;3.83;3.60;;;;;;;31.49;41.76;98703.31;1732392;82;21114;-51
2021/07/21 00:55:32;;;;;;;3.70;3.40;;;;;;;31.49;41.75;98704.14;1708831;81;21011;-51
2021/07/21 00:57:59;;;;;;;3.92;3.52;;;;;;;31.49;41.74;98701.95;1690568;82;21092;-50
2021/07/21 01:00:29;;;;;;;3.58;3.27;;;;;;;31.49;41.74;98701.42;1724347;81;21038;-51
2021/07/21 01:02:56;;;;;;;3.60;3.30;;;;;;;31.48;41.74;98697.55;1741598;82;21023;-48
2021/07/21 01:05:28;;;;;;;3.70;3.40;;;;;;;31.47;41.75;98691.29;1686334;83;22140;-52
2021/07/21 01:07:57;;;;;;;3.98;3.67;;;;;;;31.47;41.74;98692.65;1719141;81;21042;-51
2021/07/21 01:10:24;;;;;;;3.58;3.37;;;;;;;31.47;41.74;98688.57;1740805;82;21035;-51
2021/07/21 01:13:00;;;;;;;3.70;3.40;;;;;;;31.46;41.75;98685.52;1736263;81;20992;-51
2021/07/21 01:16:04;;;;;;;4.08;3.77;;;;;;;31.46;41.76;98688.24;1732221;82;21046;-50
2021/07/21 01:18:46;;;;;;;3.85;3.45;;;;;;;31.45;41.73;98686.56;1693448;82;21808;-51
2021/07/21 01:21:19;;;;;;;3.70;3.47;;;;;;;31.44;41.76;98683.55;1711306;83;21521;-50
2021/07/21 01:24:08;;;;;;;3.80;3.55;;;;;;;31.44;41.73;98680.83;1713501;81;21004;-50
2021/07/21 01:26:59;;;;;;;3.85;3.55;;;;;;;31.44;41.77;98680.83;1718936;83;21051;-50
2021/07/21 01:29:27;;;;;;;3.90;3.60;;;;;;;31.43;41.76;98682.39;1661444;85;21314;-51
2021/07/21 01:31:56;;;;;;;3.70;3.50;;;;;;;31.43;41.78;98681.03;1677905;84;21178;-51
2021/07/21 01:34:25;;;;;;;4.00;3.70;;;;;;;31.41;41.79;98685.31;1709810;83;21020;-50
2021/07/21 01:36:53;;;;;;;3.95;3.55;;;;;;;31.41;41.78;98677.16;1706983;83;21037;-50
2021/07/21 01:39:35;;;;;;;3.52;3.22;;;;;;;31.42;41.80;98686.14;1690649;84;21203;-50
2021/07/21 01:42:07;;;;;;;4.10;3.80;;;;;;;31.41;41.80;98677.16;1670762;84;22236;-50
2021/07/21 01:44:37;;;;;;;4.12;3.83;;;;;;;31.39;41.80;98680.62;1661480;84;21202;-51
2021/07/21 01:47:04;;;;;;;3.62;3.42;;;;;;;31.39;41.80;98673.82;1680359;83;21549;-51
2021/07/21 01:49:35;;;;;;;3.62;3.33;;;;;;;31.39;41.82;98677.90;1640106;86;21064;-51
2021/07/21 01:52:09;;;;;;;3.70;3.50;;;;;;;31.39;41.81;98674.32;1681046;84;21093;-51
2021/07/21 01:54:35;;;;;;;5.28;3.87;;;;;;;31.39;41.84;98676.54;1684216;84;21087;-50
2021/07/21 01:57:07;;;;;;;4.45;4.15;;;;;;;31.39;41.81;98672.46;1662706;85;21123;-51
2021/07/21 01:59:34;;;;;;;5.42;3.67;;;;;;;31.38;41.84;98672.14;1645269;85;21555;-51
2021/07/21 02:02:11;;;;;;;3.77;3.58;;;;;;;31.37;41.85;98673.70;1671478;85;21035;-51
2021/07/21 02:04:40;;;;;;;3.87;3.47;;;;;;;31.37;41.85;98675.06;1684283;84;21176;-50
2021/07/21 02:07:08;;;;;;;3.77;3.47;;;;;;;31.37;41.83;98677.78;1653385;85;21020;-51
2021/07/21 02:09:35;;;;;;;4.08;3.67;;;;;;;31.37;41.85;98684.58;1704668;83;21105;-50
2021/07/21 02:12:05;;;;;;;3.52;3.33;;;;;;;31.36;41.86;98681.56;1673312;85;21045;-50
2021/07/21 02:14:32;;;;;;;4.28;3.87;;;;;;;31.36;41.83;98687.83;1683763;84;21055;-51
2021/07/21 02:17:02;;;;;;;3.65;3.42;;;;;;;31.35;41.83;98687.50;1678307;85;21051;-51
2021/07/21 02:19:31;;;;;;;3.58;3.27;;;;;;;31.35;41.87;98686.14;1679409;85;21044;-50
2021/07/21 02:21:59;;;;;;;4.80;3.72;;;;;;;31.34;41.84;98680.41;1681961;85;21476;-51
2021/07/21 02:24:28;;;;;;;4.05;3.75;;;;;;;31.35;41.86;98686.14;1685193;85;21047;-47
2021/07/21 02:26:57;;;;;;;3.92;3.52;;;;;;;31.34;41.84;98687.20;1635424;85;21032;-51
2021/07/21 02:29:24;;;;;;;4.15;3.52;;;;;;;31.33;41.87;98684.16;1635874;84;21078;-51
2021/07/21 02:32:11;;;;;;;4.20;3.90;;;;;;;31.33;41.84;98690.13;1709390;83;21055;-50
2021/07/21 02:34:41;;;;;;;4.10;3.80;;;;;;;31.33;41.88;98685.52;1682043;84;21180;-51
2021/07/21 02:37:07;;;;;;;3.98;3.67;;;;;;;31.32;41.88;98683.86;1699703;83;21289;-51
2021/07/21 02:39:36;;;;;;;4.37;4.05;;;;;;;31.30;41.86;98681.34;1666076;85;21382;-51
2021/07/21 02:42:04;;;;;;;4.25;3.95;;;;;;;31.32;41.87;98683.00;1731144;82;21072;-50
2021/07/21 02:44:38;;;;;;;4.30;4.00;;;;;;;31.32;41.88;98685.72;1730646;82;21039;-48
2021/07/21 02:47:06;;;;;;;4.15;3.85;;;;;;;31.31;41.87;98687.61;1690115;83;21108;-51
2021/07/21 02:49:32;;;;;;;4.30;4.00;;;;;;;31.29;41.85;98685.62;1679490;83;21047;-51
2021/07/21 02:52:24;;;;;;;4.75;4.35;;;;;;;31.29;41.88;98684.27;1718778;83;21058;-51
2021/07/21 02:55:00;;;;;;;4.45;4.15;;;;;;;31.28;41.87;98690.73;1690553;83;21083;-47
2021/07/21 02:57:49;;;;;;;4.53;4.12;;;;;;;31.28;41.86;98694.28;1689874;84;21560;-49
2021/07/21 03:00:20;;;;;;;5.70;4.40;;;;;;;31.26;41.87;98699.63;1690083;84;21173;-51
2021/07/21 03:02:51;;;;;;;5.10;4.70;;;;;;;31.26;41.87;98697.73;1689196;84;21070;-49
2021/07/21 03:05:20;;;;;;;4.55;4.15;;;;;;;31.26;41.88;98695.55;1689748;84;21071;-50
2021/07/21 03:07:59;;;;;;;4.90;4.50;;;;;;;31.24;41.89;98701.19;1689270;84;21205;-51
2021/07/21 03:10:26;;;;;;;4.80;4.40;;;;;;;31.24;41.89;98699.01;1701927;83;20985;-50
2021/07/21 03:13:06;;;;;;;4.72;4.40;;;;;;;31.23;41.89;98696.79;1702711;83;21123;-49
2021/07/21 03:15:39;;;;;;;4.72;4.33;;;;;;;31.23;41.89;98710.38;1685698;83;21008;-50
2021/07/21 03:18:11;;;;;;;4.67;4.28;;;;;;;31.22;41.90;98709.22;1703379;84;21099;-50
2021/07/21 03:20:40;;;;;;;4.72;4.35;;;;;;;31.22;41.90;98706.00;1683385;84;21365;-51
2021/07/21 03:23:09;;;;;;;4.95;4.58;;;;;;;31.22;41.90;98711.94;1707905;83;21031;-51
2021/07/21 03:25:37;;;;;;;4.58;4.28;;;;;;;31.22;41.90;98721.45;1712519;83;21064;-50
2021/07/21 03:28:07;;;;;;;5.50;4.42;;;;;;;31.21;41.90;98714.36;1708422;83;21142;-50
2021/07/21 03:30:40;;;;;;;5.05;4.55;;;;;;;31.22;41.93;98718.73;1661988;85;21617;-49
2021/07/21 03:33:11;;;;;;;5.42;4.90;;;;;;;31.21;41.90;98734.74;1680977;84;21174;-49
2021/07/21 03:35:39;;;;;;;5.15;4.72;;;;;;;31.20;41.90;98738.48;1653478;85;21080;-49
2021/07/21 03:38:07;;;;;;;5.28;4.78;;;;;;;31.19;41.90;98743.09;1655439;85;21256;-50
2021/07/21 03:40:35;;;;;;;5.25;4.85;;;;;;;31.19;41.91;98751.78;1655117;85;21111;-49
2021/07/21 03:43:12;;;;;;;5.37;4.87;;;;;;;31.19;41.91;98753.14;1666246;85;21010;-49
2021/07/21 03:45:41;;;;;;;4.65;4.35;;;;;;;31.18;41.91;98755.52;1673936;85;21672;-49
2021/07/21 03:48:08;;;;;;;4.97;4.53;;;;;;;31.17;41.92;98756.06;1707431;83;21147;-50
2021/07/21 03:50:57;;;;;;;5.20;4.80;;;;;;;31.17;41.92;98757.91;1726526;83;21154;-50
2021/07/21 03:53:26;;;;;;;5.72;5.25;;;;;;;31.17;41.94;98753.84;1707814;82;21130;-50
2021/07/21 03:55:54;;;;;;;5.35;4.50;;;;;;;31.16;41.95;98755.73;1731528;82;21038;-49
2021/07/21 03:58:23;;;;;;;4.87;4.53;;;;;;;31.15;41.92;98754.58;1744130;82;21027;-49
2021/07/21 04:00:55;;;;;;;5.22;4.83;;;;;;;31.16;41.95;98763.05;1734496;82;21048;-51
2021/07/21 04:03:24;;;;;;;5.15;4.65;;;;;;;31.14;41.92;98760.53;1689341;83;21048;-50
2021/07/21 04:05:55;;;;;;;6.03;5.50;;;;;;;31.14;41.91;98757.82;1688611;83;21301;-50
2021/07/21 04:08:23;;;;;;;4.90;4.50;;;;;;;31.13;41.92;98758.85;1711893;83;21063;-50
2021/07/21 04:10:52;;;;;;;5.20;4.80;;;;;;;31.13;41.91;98758.02;1711558;83;21044;-49
2021/07/21 04:13:19;;;;;;;5.65;5.25;;;;;;;31.11;41.91;98756.34;1712626;83;21043;-49
2021/07/21 04:15:56;;;;;;;5.30;4.90;;;;;;;31.11;41.91;98744.11;1687162;83;21206;-49
2021/07/21 04:18:24;;;;;;;6.15;5.60;;;;;;;31.10;41.92;98749.25;1712658;82;21414;-49
2021/07/21 04:20:52;;;;;;;6.15;5.50;;;;;;;31.09;41.92;98742.13;1711593;82;21087;-49
2021/07/21 04:23:19;;;;;;;5.35;4.95;;;;;;;31.10;41.92;98750.61;1715363;82;21553;-50
2021/07/21 04:25:49;;;;;;;5.30;4.90;;;;;;;31.09;41.92;98750.81;1711891;83;21039;-50
2021/07/21 04:28:17;;;;;;;5.50;5.00;;;;;;;31.09;41.92;98752.17;1711534;83;21161;-49
2021/07/21 04:30:45;;;;;;;6.25;5.67;;;;;;;31.08;41.92;98758.63;1693180;83;21063;-49
2021/07/21 04:33:12;;;;;;;5.45;5.05;;;;;;;31.08;41.92;98761.34;1657942;84;21080;-49
2021/07/21 04:35:41;;;;;;;5.85;5.20;;;;;;;31.08;41.92;98763.53;1667085;84;21103;-49
2021/07/21 04:38:09;;;;;;;5.60;5.00;;;;;;;31.08;41.93;98766.25;1688958;84;21071;-50
2021/07/21 04:40:43;;;;;;;5.92;5.40;;;;;;;31.08;41.89;98761.34;1648223;84;21098;-50
2021/07/21 04:43:25;;;;;;;7.00;5.12;;;;;;;31.08;41.89;98766.78;1667463;84;21091;-48
2021/07/21 04:45:52;;;;;;;6.33;5.83;;;;;;;31.08;41.88;98762.70;1667139;84;21498;-50
2021/07/21 04:48:21;;;;;;;6.12;5.62;;;;;;;31.07;41.88;98759.16;1690939;84;21052;-50
2021/07/21 04:50:49;;;;;;;5.90;5.37;;;;;;;31.07;41.88;98760.52;1673808;85;22276;-50
2021/07/21 04:53:17;;;;;;;5.90;5.33;;;;;;;31.08;41.84;98759.45;1674615;85;21218;-48
2021/07/21 04:55:46;;;;;;;5.83;5.33;;;;;;;31.08;41.84;98757.27;1685605;85;21076;-50
2021/07/21 04:58:15;;;;;;;6.20;5.47;;;;;;;31.08;41.84;98761.34;1688129;85;21457;-51
2021/07/21 05:00:43;;;;;;;6.33;5.70;;;;;;;31.08;41.82;98764.06;1665985;85;21072;-50
2021/07/21 05:03:11;;;;;;;6.25;5.75;;;;;;;31.08;41.81;98762.17;1687144;84;21268;-50
2021/07/21 05:05:40;;;;;;;6.65;6.05;;;;;;;31.08;41.80;98759.45;1687214;84;22167;-50
2021/07/21 05:08:07;;;;;;;6.28;5.53;;;;;;;31.08;41.80;98766.78;1687786;85;21031;-50
2021/07/21 05:10:35;;;;;;;7.78;5.95;;;;;;;31.08;41.77;98766.25;1687078;84;21438;-50
2021/07/21 05:13:02;;;;;;;6.03;5.25;;;;;;;31.08;41.77;98761.34;1687350;85;21075;-51
2021/07/21 05:15:31;;;;;;;6.92;6.22;;;;;;;31.08;41.76;98767.61;1665505;85;21003;-50
2021/07/21 05:18:12;;;;;;;6.22;5.67;;;;;;;31.07;41.72;98765.95;1673598;85;21031;-51
2021/07/21 05:20:41;;;;;;;6.58;5.97;;;;;;;31.07;41.71;98770.03;1678396;84;20993;-50
2021/07/21 05:23:09;;;;;;;6.15;5.65;;;;;;;31.08;41.73;98760.81;1697299;83;22247;-49
2021/07/21 05:25:40;;;;;;;6.20;5.65;;;;;;;31.09;41.68;98762.50;1688967;84;21035;-47
2021/07/21 05:28:25;;;;;;;;;;;;;;;31.09;41.64;98763.86;1676379;83;21099;-47
2021/07/21 05:30:54;;;;;;;5.95;5.30;;;;;;;31.10;41.61;98760.11;1710595;83;21160;-50
2021/07/21 05:33:21;;;;;;;6.60;5.97;;;;;;;31.11;41.60;98760.95;1688819;83;21043;-50
2021/07/21 05:35:49;;;;;;;6.37;5.78;;;;;;;31.12;41.56;98757.20;1709085;83;20965;-50
2021/07/21 05:38:17;;;;;;;6.12;5.53;;;;;;;31.14;41.54;98754.27;1708732;83;21036;-50
2021/07/21 05:40:45;;;;;;;5.97;5.47;;;;;;;31.17;41.48;98761.99;1709226;83;21064;-50
2021/07/21 05:43:19;;;;;;;6.28;5.62;;;;;;;31.18;41.42;98764.51;1708600;83;22225;-49
2021/07/21 05:45:53;;;;;;;5.42;4.97;;;;;;;31.21;41.37;98766.81;1709038;83;21122;-50
2021/07/21 05:48:22;;;;;;;6.22;5.62;;;;;;;31.24;41.29;98771.84;1696397;83;21027;-50
2021/07/21 05:50:57;;;;;;;6.40;5.70;;;;;;;31.27;41.20;98765.15;1676446;84;21617;-49
2021/07/21 05:53:24;;;;;;;6.33;5.72;;;;;;;31.31;41.10;98765.07;1684300;85;21138;-51
2021/07/21 05:55:51;;;;;;;6.33;5.72;;;;;;;31.35;41.04;98763.60;1711287;83;21145;-50
2021/07/21 05:58:19;;;;;;;6.12;5.53;;;;;;;31.40;40.94;98758.91;1693513;83;21644;-50
2021/07/21 06:00:46;;;;;;;6.35;5.58;;;;;;;31.43;40.85;98755.25;1693621;83;21046;-50
2021/07/21 06:03:18;;;;;;;5.62;5.17;;;;;;;31.47;40.78;98757.89;1713912;83;21451;-50
2021/07/21 06:05:53;;;;;;;5.50;5.00;;;;;;;31.52;40.65;98753.73;1628465;86;21448;-49
2021/07/21 06:08:25;;;;;;;5.53;5.05;;;;;;;31.56;40.56;98753.66;1711169;83;21884;-49
2021/07/21 06:10:58;;;;;;;;;;;;;;;31.60;40.49;98753.54;1712837;83;21078;-50
2021/07/21 06:13:26;;;;;;;5.40;5.00;;;;;;;31.63;40.36;98764.00;1710295;83;20172;-51
2021/07/21 06:15:53;;;;;;;5.65;5.15;;;;;;;31.68;40.29;98768.30;1710470;83;21005;-49
2021/07/21 06:18:20;;;;;;;5.75;5.00;;;;;;;31.72;40.19;98772.79;1684126;83;21067;-49
2021/07/21 06:20:48;;;;;;;5.75;5.25;;;;;;;31.77;40.11;98775.72;1694290;83;21302;-50
2021/07/21 06:23:15;;;;;;;5.62;5.08;;;;;;;31.82;40.01;98773.20;1715196;83;21566;-50
2021/07/21 06:25:45;;;;;;;5.58;5.08;;;;;;;31.85;39.89;98776.34;1701365;82;21086;-50
2021/07/21 06:28:23;;;;;;;5.58;5.03;;;;;;;31.91;39.78;98775.19;1691999;83;21041;-49
2021/07/21 06:30:49;;;;;;;6.03;5.17;;;;;;;31.95;39.67;98777.82;1719245;83;21439;-49
2021/07/21 06:33:18;;;;;;;5.00;4.60;;;;;;;32.00;39.61;98778.03;1718732;83;21167;-50
2021/07/21 06:35:46;;;;;;;5.15;4.70;;;;;;;32.04;39.49;98773.83;1716746;83;20930;-50
2021/07/21 06:38:12;;;;;;;5.12;4.62;;;;;;;32.08;39.39;98777.84;1716713;83;20942;-50
2021/07/21 06:40:41;;;;;;;5.78;5.20;;;;;;;32.11;39.29;98771.98;1690344;83;21009;-48
2021/07/21 06:43:08;;;;;;;5.40;4.72;;;;;;;32.14;39.22;98767.45;1715332;83;21080;-50
2021/07/21 06:45:37;;;;;;;6.00;5.28;;;;;;;32.18;39.17;98767.90;1712724;83;22152;-49
2021/07/21 06:48:06;;;;;;;5.75;5.10;;;;;;;32.20;39.11;98763.08;1688554;83;21094;-49
2021/07/21 06:50:34;;;;;;;5.05;4.55;;;;;;;32.22;39.06;98764.52;1716863;83;21027;-50
2021/07/21 06:53:02;;;;;;;4.87;4.47;;;;;;;32.23;38.99;98762.66;1715810;83;21552;-50
2021/07/21 06:55:46;;;;;;;5.17;4.58;;;;;;;32.26;38.95;98760.02;1728632;82;21050;-50
2021/07/21 06:58:14;;;;;;;5.03;4.62;;;;;;;32.29;38.90;98762.32;1746334;82;21205;-50
2021/07/21 07:00:43;;;;;;;5.28;4.78;;;;;;;32.31;38.84;98768.38;1718052;82;21044;-49
2021/07/21 07:03:21;;;;;;;5.42;4.92;;;;;;;32.32;38.81;98764.63;1746113;82;21126;-51
2021/07/21 07:05:56;;;;;;;5.78;4.90;;;;;;;32.33;38.76;98769.86;1715817;82;20991;-49
2021/07/21 07:08:41;;;;;;;4.60;4.28;;;;;;;32.34;38.74;98767.96;1746431;82;21162;-50
2021/07/21 07:11:19;;;;;;;4.90;4.50;;;;;;;32.34;38.67;98773.41;1709184;82;23369;-51
2021/07/21 07:13:48;;;;;;;4.92;4.35;;;;;;;32.35;38.65;98772.37;1705525;83;37480;-50
2021/07/21 07:16:14;;;;;;;5.42;4.92;;;;;;;32.35;38.63;98773.20;1700256;83;21946;-49
2021/07/21 07:18:41;;;;;;;4.78;4.37;;;;;;;32.36;38.61;98769.44;1707551;83;21040;-49
2021/07/21 07:21:08;;;;;;;4.97;4.50;;;;;;;32.37;38.57;98770.27;1701674;83;21071;-50
2021/07/21 07:23:35;;;;;;;5.62;4.72;;;;;;;32.37;38.52;98773.81;1699779;83;21087;-49
2021/07/21 07:26:03;;;;;;;5.55;4.70;;;;;;;32.39;38.50;98777.69;1689828;84;21075;-50
2021/07/21 07:28:29;;;;;;;4.72;4.30;;;;;;;32.39;38.45;98780.41;1669672;83;21629;-50
2021/07/21 07:30:56;;;;;;;4.92;4.47;;;;;;;32.41;38.41;98789.19;1712183;83;22199;-46
2021/07/21 07:33:23;;;;;;;4.53;4.17;;;;;;;32.42;38.35;98777.80;1685910;83;21011;-48
2021/07/21 07:35:49;;;;;;;5.55;4.62;;;;;;;32.43;38.29;98778.95;1685272;83;21672;-49
2021/07/21 07:38:17;;;;;;;4.58;4.28;;;;;;;32.45;38.23;98776.84;1685803;83;21050;-50
2021/07/21 07:40:44;;;;;;;4.67;4.28;;;;;;;32.47;38.17;98777.46;1685687;83;22221;-49
2021/07/21 07:43:11;;;;;;;4.72;4.33;;;;;;;32.50;38.12;98774.31;1685483;83;21048;-50
2021/07/21 07:45:37;;;;;;;6.00;4.35;;;;;;;32.52;38.03;98770.84;1687880;83;21118;-49
2021/07/21 07:48:05;;;;;;;4.08;3.77;;;;;;;32.54;37.95;98774.19;1698741;82;21167;-49
2021/07/21 07:50:31;;;;;;;6.10;4.00;;;;;;;32.56;37.90;98784.87;1734047;82;21027;-51
2021/07/21 07:52:57;;;;;;;4.50;4.10;;;;;;;32.56;37.89;98785.70;1733760;82;21603;-48
2021/07/21 07:55:25;;;;;;;4.22;3.92;;;;;;;32.56;37.84;98778.89;1724082;82;21083;-50
2021/07/21 07:57:51;;;;;;;4.10;3.75;;;;;;;32.58;37.80;98789.56;1714334;83;21036;-50
2021/07/21 08:00:19;;;;;;;4.10;3.80;;;;;;;32.58;37.79;98788.21;1675704;84;21704;-50
2021/07/21 08:02:46;;;;;;;5.28;3.98;;;;;;;32.57;37.76;98781.94;1709767;83;21079;-50
2021/07/21 08:05:14;;;;;;;4.22;3.83;;;;;;;32.56;37.80;98787.05;1693778;83;21126;-50
2021/07/21 08:07:41;;;;;;;4.33;3.92;;;;;;;32.56;37.77;98782.97;1714200;83;21488;-49
2021/07/21 08:10:13;;;;;;;3.83;3.52;;;;;;;32.55;37.82;98786.77;1710812;83;21055;-51
2021/07/21 08:12:37;;;;;;;4.47;4.08;;;;;;;32.54;37.79;98786.44;1708021;83;21137;-51
2021/07/21 08:15:05;;;;;;;4.42;4.03;;;;;;;32.53;37.83;98788.87;1684152;83;21507;-51
2021/07/21 08:17:31;;;;;;;4.05;3.70;;;;;;;32.53;37.83;98790.23;1708296;83;21063;-47
2021/07/21 08:19:58;;;;;;;4.92;3.92;;;;;;;32.52;37.79;98791.27;1707806;83;21064;-50
2021/07/21 08:22:25;;;;;;;3.65;3.35;;;;;;;32.52;37.82;98795.36;1708052;83;21549;-48
2021/07/21 08:24:51;;;;;;;3.80;3.47;;;;;;;32.53;37.82;98797.05;1712311;83;21150;-48
2021/07/21 08:27:18;;;;;;;4.37;3.95;;;;;;;32.54;37.76;98798.70;1691757;83;21554;-50
2021/07/21 08:29:44;;;;;;;5.10;4.03;;;;;;;32.55;37.76;98794.94;1687213;83;21066;-50
2021/07/21 08:32:11;;;;;;;4.00;3.70;;;;;;;32.57;37.71;98799.64;1713806;82;22074;-49
2021/07/21 08:34:37;;;;;;;3.95;3.70;;;;;;;32.60;37.66;98795.66;1694136;83;21069;-50
2021/07/21 08:37:04;;;;;;;4.42;3.45;;;;;;;32.62;37.63;98799.57;1696653;83;21167;-49
2021/07/21 08:39:30;;;;;;;3.77;3.52;;;;;;;32.63;37.60;98789.80;1719702;83;21080;-51
2021/07/21 08:41:57;;;;;;;4.50;4.10;;;;;;;32.66;37.54;98795.35;1696987;83;21566;-50
2021/07/21 08:44:24;;;;;;;3.87;3.58;;;;;;;32.67;37.49;98795.67;1719431;83;21052;-50
2021/07/21 08:46:51;;;;;;;4.55;3.58;;;;;;;32.68;37.49;98801.42;1716156;83;22335;-51
2021/07/21 08:49:17;;;;;;;4.20;3.90;;;;;;;32.68;37.45;98792.74;1687703;85;21684;-50
2021/07/21 08:51:44;;;;;;;3.80;3.50;;;;;;;32.69;37.46;98794.93;1686042;85;21616;-49
2021/07/21 08:54:10;;;;;;;4.08;3.77;;;;;;;32.69;37.41;98799.02;1668132;85;22042;-49
2021/07/21 08:56:37;;;;;;;4.05;3.75;;;;;;;32.69;37.42;98799.84;1720224;82;21114;-50
2021/07/21 08:59:03;;;;;;;4.42;3.90;;;;;;;32.69;37.42;98794.93;1698906;81;21011;-50
2021/07/21 09:01:30;;;;;;;3.70;3.40;;;;;;;32.69;37.41;98797.66;1750558;81;21139;-50
2021/07/21 09:03:56;;;;;;;3.60;3.30;;;;;;;32.69;37.40;98797.66;1729020;81;21059;-48
2021/07/21 09:06:22;;;;;;;4.10;3.80;;;;;;;32.71;37.39;98795.55;1752540;81;21098;-49
2021/07/21 09:08:49;;;;;;;4.22;3.80;;;;;;;32.73;37.35;98800.25;1752532;81;21008;-49
2021/07/21 09:11:16;;;;;;;3.80;3.50;;;;;;;32.75;37.31;98802.22;1731679;81;21600;-51
2021/07/21 09:13:42;;;;;;;3.62;3.33;;;;;;;32.77;37.30;98802.88;1730094;82;21782;-50
2021/07/21 09:16:08;;;;;;;4.22;3.55;;;;;;;32.78;37.27;98801.80;1718063;83;21298;-51
2021/07/21 09:18:52;;;;;;;3.50;3.30;;;;;;;32.79;37.24;98804.84;1744752;82;21032;-50
2021/07/21 09:21:21;;;;;;;3.60;3.30;;;;;;;32.80;37.19;98801.09;1714222;83;20984;-48
2021/07/21 09:23:51;;;;;;;3.62;3.33;;;;;;;32.80;37.19;98803.81;1715611;82;21067;-50
2021/07/21 09:26:21;;;;;;;3.30;3.10;;;;;;;32.81;37.17;98807.36;1715952;83;21148;-50
2021/07/21 09:28:48;;;;;;;3.37;3.08;;;;;;;32.80;37.16;98813.34;1716049;83;21076;-50
2021/07/21 09:31:28;;;;;;;4.45;3.77;;;;;;;32.82;37.17;98811.73;1699222;82;21013;-51
2021/07/21 09:33:55;;;;;;;3.62;3.37;;;;;;;32.82;37.17;98810.38;1683838;83;21532;-50
2021/07/21 09:36:22;;;;;;;3.60;3.30;;;;;;;32.83;37.16;98807.44;1722642;83;21041;-49
2021/07/21 09:38:51;;;;;;;4.37;3.40;;;;;;;32.84;37.10;98806.94;1699086;83;22417;-49
2021/07/21 09:41:18;;;;;;;3.08;2.83;;;;;;;32.84;37.10;98809.12;1721922;83;21603;-51
2021/07/21 09:43:45;;;;;;;3.20;2.92;;;;;;;32.85;37.08;98807.23;1699231;83;20955;-50
2021/07/21 09:46:14;;;;;;;4.00;3.20;;;;;;;32.84;37.10;98811.84;1721720;83;21072;-50
2021/07/21 09:48:49;;;;;;;3.27;3.08;;;;;;;32.84;37.11;98803.67;1734643;82;21136;-49
2021/07/21 09:51:36;;;;;;;3.08;2.87;;;;;;;32.83;37.10;98801.98;1665759;85;22251;-49
2021/07/21 09:54:16;;;;;;;3.58;3.27;;;;;;;32.84;37.10;98806.40;1700568;83;21095;-50
2021/07/21 09:56:48;;;;;;;3.90;3.37;;;;;;;32.83;37.13;98804.72;1689606;84;21047;-49
2021/07/21 09:59:33;;;;;;;3.50;3.27;;;;;;;32.84;37.12;98796.86;1711461;83;21055;-50
2021/07/21 10:01:57;;;;;;;3.20;3.00;;;;;;;32.84;37.11;98799.59;1714267;83;21043;-50
2021/07/21 10:04:37;;;;;;;3.25;3.05;;;;;;;32.83;37.11;98799.27;1711449;83;21638;-50
2021/07/21 10:07:21;;;;;;;3.52;3.33;;;;;;;32.83;37.11;98791.63;1711901;83;21103;-50
2021/07/21 10:09:34;;;;;;;3.62;3.33;;;;;;;32.83;37.13;98796.55;1713357;83;21067;-51
2021/07/21 10:12:01;;;;;;;3.62;3.33;;;;;;;32.83;37.13;98784.28;1716115;83;21091;-50
2021/07/21 10:14:27;;;;;;;3.42;3.12;;;;;;;32.84;37.11;98787.33;1664738;83;21051;-51
2021/07/21 10:16:55;;;;;;;3.42;3.12;;;;;;;32.85;37.08;98791.73;1721492;83;21147;-50
2021/07/21 10:19:28;;;;;;;3.27;3.08;;;;;;;32.87;37.09;98783.35;1697900;83;21090;-50
2021/07/21 10:22:00;;;;;;;3.27;3.08;;;;;;;32.89;37.02;98783.97;1716047;83;21095;-50
2021/07/21 10:24:34;;;;;;;4.03;3.03;;;;;;;32.91;37.01;98784.58;1696621;83;21091;-50
2021/07/21 10:27:04;;;;;;;3.15;2.95;;;;;;;32.91;36.97;98778.59;1687785;84;21059;-48
2021/07/21 10:29:30;;;;;;;3.35;3.05;;;;;;;32.94;36.95;98782.25;1708469;83;21150;-51
2021/07/21 10:31:57;;;;;;;3.17;2.90;;;;;;;32.95;36.92;98785.30;1695629;83;21126;-51
2021/07/21 10:34:25;;;;;;;3.30;3.00;;;;;;;32.95;36.90;98786.66;1721375;83;20983;-50
2021/07/21 10:36:51;;;;;;;2.80;2.60;;;;;;;32.96;36.90;98791.58;1692404;83;22268;-50
2021/07/21 10:39:25;;;;;;;3.08;2.85;;;;;;;32.94;36.90;98787.70;1691647;83;21066;-49
2021/07/21 10:41:52;;;;;;;3.10;2.90;;;;;;;32.93;36.88;98784.69;1721563;83;21542;-48
2021/07/21 10:44:19;;;;;;;3.15;2.95;;;;;;;32.94;36.90;98793.16;1672665;83;20963;-50
2021/07/21 10:46:51;;;;;;;3.40;3.15;;;;;;;32.94;36.90;98787.70;1721870;82;21098;-50
2021/07/21 10:49:36;;;;;;;3.27;2.72;;;;;;;32.94;36.92;98784.98;1684738;83;21000;-50
2021/07/21 10:55:23;;;;;;;3.12;2.92;;;;;;;32.93;36.90;98788.77;1723718;81;21805;-50
2021/07/21 11:00:39;;;;;;;2.90;2.75;;;;;;;32.91;36.93;98785.41;1747141;82;21099;-48
2021/07/21 11:03:33;;;;;;;3.00;2.80;;;;;;;32.91;36.93;98781.32;1747104;82;21019;-49
2021/07/21 11:06:04;;;;;;;3.40;3.02;;;;;;;32.92;36.94;98773.47;1747643;82;21052;-50
2021/07/21 11:08:31;;;;;;;3.22;2.92;;;;;;;32.94;36.94;98780.89;1723823;82;21036;-49
2021/07/21 11:11:05;;;;;;;3.02;2.72;;;;;;;32.94;36.92;98780.89;1733927;82;21586;-49
2021/07/21 11:13:36;;;;;;;3.15;2.85;;;;;;;32.96;36.88;98777.42;1728421;82;21079;-49
2021/07/21 11:16:07;;;;;;;2.60;2.40;;;;;;;32.96;36.87;98786.95;1717540;83;21009;-50
2021/07/21 11:18:42;;;;;;;3.30;3.00;;;;;;;32.95;36.87;98788.53;1717751;83;21047;-48
2021/07/21 11:21:16;;;;;;;2.95;2.75;;;;;;;32.93;36.89;98786.05;1705466;83;21606;-50
2021/07/21 11:23:55;;;;;;;2.62;2.42;;;;;;;32.92;36.95;98787.63;1710070;82;21050;-50
2021/07/21 11:26:42;;;;;;;2.95;2.75;;;;;;;32.91;36.96;98790.03;1717670;83;21071;-50
2021/07/21 11:29:30;;;;;;;2.67;2.52;;;;;;;32.89;36.97;98790.24;1693086;83;21062;-50
2021/07/21 11:31:58;;;;;;;3.10;2.90;;;;;;;32.88;36.98;98792.64;1721274;83;21560;-48
2021/07/21 11:34:34;;;;;;;2.90;2.70;;;;;;;32.87;36.97;98785.54;1690781;83;21094;-51
2021/07/21 11:37:19;;;;;;;3.37;2.70;;;;;;;32.87;36.99;98793.72;1721056;83;21558;-50
2021/07/21 11:39:52;;;;;;;3.02;2.67;;;;;;;32.87;36.99;98797.80;1720833;83;21062;-51
2021/07/21 11:42:31;;;;;;;3.02;2.83;;;;;;;32.88;37.00;98791.28;1720981;83;21015;-50
2021/07/21 11:45:13;;;;;;;2.50;2.40;;;;;;;32.88;36.98;98803.55;1719814;83;21074;-50
2021/07/21 11:47:50;;;;;;;2.83;2.67;;;;;;;32.89;36.97;98809.84;1720408;82;21151;-50
2021/07/21 11:50:20;;;;;;;2.77;2.58;;;;;;;32.89;36.95;98802.50;1686069;84;21027;-50
2021/07/21 11:52:54;;;;;;;2.83;2.52;;;;;;;32.87;36.96;98810.06;1685988;85;21039;-49
2021/07/21 11:55:25;;;;;;;2.72;2.52;;;;;;;32.86;36.96;98807.02;1653867;84;21062;-51
2021/07/21 11:57:56;;;;;;;2.25;2.15;;;;;;;32.86;36.97;98808.91;1743039;82;21098;-47
2021/07/21 12:00:22;;;;;;;2.92;2.72;;;;;;;32.84;36.98;98809.12;1743472;82;21144;-50